Huvudsida
METAR-TAF:

METAR-TAF

Flygplatser :

Salto, Uruguay

latitud: 31-23S, longitud: 057-57W, höjd: 34 m

METAR: saknas

Tid: 00:37 (03:37 UTC)

Väderprognos

Denna rapport gjordes för 3 timmar och 52 minuter sedan, klockan 23:45 UTC
Prognos gäller från 17 kl. 00 UTC till 17 kl. 24 UTC
Vind 5 kt från nordost
Sikt 10 km eller mer
Inga moln under 1 500 m eller inga cumulonimbus
Temporärt
från 17 kl. 11 UTC till 17 kl. 19 UTC
Sikt: 5000 m
Brutna moln på en höjd av 1500 ft
Brutna moln på en höjd av 6000 ft
regnskurar
Blir
från 17 kl. 15 UTC till 17 kl. 17 UTC
Vind 10 kt från syd

TAF: SUSO 162345Z 1700/1724 05005KT CAVOK TX20/1718Z TN07/1710Z TEMPO 1711/1719 5000 SHRA BKN015 BKN060 BECMG 1715/1717 19010KT

Aktuella väderrapporter och prognoser från 4000 flygplatser (METAR- och TAF-rapporter).

De tillgängliga stationerna syns som gula och röda prickar på kartan.

För musen över prickarna för att se namnen på stationerna.

Klicka sedan för att få väderrapporter och prognoser.

För att ändra kartan: Klicka på de gröna knapparna med ett svart kors på för att zooma in; den gröna knappen med ett streck på för att zooma ut; eller på de gröna pilarna för angränsande kartor.


METAR-TAF: